sensor_id;sensor_type;location;lat;lon;timestamp;temperature;humidity
11577;DHT22;5844;51.496;6.788;2023-07-02T00:01:56;17.70;1.00
11577;DHT22;5844;51.496;6.788;2023-07-02T00:04:21;17.70;1.00
11577;DHT22;5844;51.496;6.788;2023-07-02T00:06:47;17.80;1.00
11577;DHT22;5844;51.496;6.788;2023-07-02T00:09:14;17.70;1.00
11577;DHT22;5844;51.496;6.788;2023-07-02T00:11:42;17.80;1.00
11577;DHT22;5844;51.496;6.788;2023-07-02T00:14:08;17.70;1.00
11577;DHT22;5844;51.496;6.788;2023-07-02T00:16:37;17.70;1.00
11577;DHT22;5844;51.496;6.788;2023-07-02T00:19:03;17.70;1.00
11577;DHT22;5844;51.496;6.788;2023-07-02T00:21:29;17.80;1.00
11577;DHT22;5844;51.496;6.788;2023-07-02T00:23:55;17.70;1.00
11577;DHT22;5844;51.496;6.788;2023-07-02T00:26:24;17.80;1.00
11577;DHT22;5844;51.496;6.788;2023-07-02T00:28:51;17.80;1.00
11577;DHT22;5844;51.496;6.788;2023-07-02T00:31:17;17.80;1.00
11577;DHT22;5844;51.496;6.788;2023-07-02T00:33:42;17.70;1.00
11577;DHT22;5844;51.496;6.788;2023-07-02T00:36:08;17.70;1.00
11577;DHT22;5844;51.496;6.788;2023-07-02T00:38:46;17.70;1.00
11577;DHT22;5844;51.496;6.788;2023-07-02T00:41:13;17.70;1.00
11577;DHT22;5844;51.496;6.788;2023-07-02T00:43:39;17.60;1.00
11577;DHT22;5844;51.496;6.788;2023-07-02T00:46:18;17.60;1.00
11577;DHT22;5844;51.496;6.788;2023-07-02T00:48:55;17.60;1.00
11577;DHT22;5844;51.496;6.788;2023-07-02T00:51:25;17.60;1.00
11577;DHT22;5844;51.496;6.788;2023-07-02T00:53:54;17.50;1.00
11577;DHT22;5844;51.496;6.788;2023-07-02T00:56:24;17.50;1.00
11577;DHT22;5844;51.496;6.788;2023-07-02T00:58:52;17.50;1.00
11577;DHT22;5844;51.496;6.788;2023-07-02T01:01:22;17.50;1.00
11577;DHT22;5844;51.496;6.788;2023-07-02T01:04:10;17.50;1.00
11577;DHT22;5844;51.496;6.788;2023-07-02T01:06:38;17.50;1.00
11577;DHT22;5844;51.496;6.788;2023-07-02T01:09:07;17.50;1.00
11577;DHT22;5844;51.496;6.788;2023-07-02T01:14:13;17.40;1.00
11577;DHT22;5844;51.496;6.788;2023-07-02T01:16:42;17.30;1.00
11577;DHT22;5844;51.496;6.788;2023-07-02T01:21:58;17.20;1.00
11577;DHT22;5844;51.496;6.788;2023-07-02T01:24:24;17.10;1.00
11577;DHT22;5844;51.496;6.788;2023-07-02T01:26:49;17.10;1.00
11577;DHT22;5844;51.496;6.788;2023-07-02T01:29:16;17.00;1.00
11577;DHT22;5844;51.496;6.788;2023-07-02T01:31:42;17.00;1.00
11577;DHT22;5844;51.496;6.788;2023-07-02T01:34:07;17.00;1.00
11577;DHT22;5844;51.496;6.788;2023-07-02T01:36:34;17.10;1.00
11577;DHT22;5844;51.496;6.788;2023-07-02T01:39:00;17.10;1.00
11577;DHT22;5844;51.496;6.788;2023-07-02T01:41:26;17.20;1.00
11577;DHT22;5844;51.496;6.788;2023-07-02T01:43:51;17.20;1.00
11577;DHT22;5844;51.496;6.788;2023-07-02T01:46:17;17.20;1.00
11577;DHT22;5844;51.496;6.788;2023-07-02T01:48:42;17.30;1.00
11577;DHT22;5844;51.496;6.788;2023-07-02T01:51:08;17.30;1.00
11577;DHT22;5844;51.496;6.788;2023-07-02T01:53:33;17.20;1.00
11577;DHT22;5844;51.496;6.788;2023-07-02T01:55:59;17.20;1.00
11577;DHT22;5844;51.496;6.788;2023-07-02T01:58:25;17.20;1.00
11577;DHT22;5844;51.496;6.788;2023-07-02T02:00:51;17.20;1.00
11577;DHT22;5844;51.496;6.788;2023-07-02T02:03:17;17.20;1.00
11577;DHT22;5844;51.496;6.788;2023-07-02T02:05:43;17.20;1.00
11577;DHT22;5844;51.496;6.788;2023-07-02T02:08:09;17.10;1.00
11577;DHT22;5844;51.496;6.788;2023-07-02T02:10:34;17.10;1.00
11577;DHT22;5844;51.496;6.788;2023-07-02T02:13:00;17.10;1.00
11577;DHT22;5844;51.496;6.788;2023-07-02T02:15:26;17.10;1.00
11577;DHT22;5844;51.496;6.788;2023-07-02T02:17:51;17.10;1.00
11577;DHT22;5844;51.496;6.788;2023-07-02T02:20:17;17.10;1.00
11577;DHT22;5844;51.496;6.788;2023-07-02T02:22:42;17.00;1.00
11577;DHT22;5844;51.496;6.788;2023-07-02T02:25:08;17.00;1.00
11577;DHT22;5844;51.496;6.788;2023-07-02T02:27:34;17.00;1.00
11577;DHT22;5844;51.496;6.788;2023-07-02T02:30:00;17.10;1.00
11577;DHT22;5844;51.496;6.788;2023-07-02T02:32:26;17.10;1.00
11577;DHT22;5844;51.496;6.788;2023-07-02T02:34:51;17.10;1.00
11577;DHT22;5844;51.496;6.788;2023-07-02T02:37:18;17.10;1.00
11577;DHT22;5844;51.496;6.788;2023-07-02T02:39:43;17.10;1.00
11577;DHT22;5844;51.496;6.788;2023-07-02T02:42:09;17.10;1.00
11577;DHT22;5844;51.496;6.788;2023-07-02T02:44:35;17.10;1.00
11577;DHT22;5844;51.496;6.788;2023-07-02T02:47:00;17.20;1.00
11577;DHT22;5844;51.496;6.788;2023-07-02T02:49:26;17.20;1.00
11577;DHT22;5844;51.496;6.788;2023-07-02T02:51:51;17.20;1.00
11577;DHT22;5844;51.496;6.788;2023-07-02T02:54:17;17.20;1.00
11577;DHT22;5844;51.496;6.788;2023-07-02T02:56:43;17.20;1.00
11577;DHT22;5844;51.496;6.788;2023-07-02T02:59:08;17.20;1.00
11577;DHT22;5844;51.496;6.788;2023-07-02T03:01:34;17.20;1.00
11577;DHT22;5844;51.496;6.788;2023-07-02T03:03:59;17.20;1.00
11577;DHT22;5844;51.496;6.788;2023-07-02T03:06:25;17.20;1.00
11577;DHT22;5844;51.496;6.788;2023-07-02T03:08:51;17.20;1.00
11577;DHT22;5844;51.496;6.788;2023-07-02T03:11:16;17.20;1.00
11577;DHT22;5844;51.496;6.788;2023-07-02T03:13:42;17.20;1.00
11577;DHT22;5844;51.496;6.788;2023-07-02T03:16:07;17.30;1.00
11577;DHT22;5844;51.496;6.788;2023-07-02T03:18:33;17.30;1.00
11577;DHT22;5844;51.496;6.788;2023-07-02T03:20:59;17.30;1.00
11577;DHT22;5844;51.496;6.788;2023-07-02T03:23:25;17.20;1.00
11577;DHT22;5844;51.496;6.788;2023-07-02T03:25:50;17.20;1.00
11577;DHT22;5844;51.496;6.788;2023-07-02T03:28:16;17.20;1.00
11577;DHT22;5844;51.496;6.788;2023-07-02T03:30:42;17.20;1.00
11577;DHT22;5844;51.496;6.788;2023-07-02T03:33:09;17.30;1.00
11577;DHT22;5844;51.496;6.788;2023-07-02T03:35:37;17.30;1.00
11577;DHT22;5844;51.496;6.788;2023-07-02T03:38:04;17.30;1.00
11577;DHT22;5844;51.496;6.788;2023-07-02T03:40:31;17.30;1.00
11577;DHT22;5844;51.496;6.788;2023-07-02T03:42:57;17.30;1.00
11577;DHT22;5844;51.496;6.788;2023-07-02T03:45:22;17.30;1.00
11577;DHT22;5844;51.496;6.788;2023-07-02T03:47:48;17.20;1.00
11577;DHT22;5844;51.496;6.788;2023-07-02T03:50:14;17.20;1.00
11577;DHT22;5844;51.496;6.788;2023-07-02T03:52:39;17.20;1.00
11577;DHT22;5844;51.496;6.788;2023-07-02T03:55:05;17.20;1.00
11577;DHT22;5844;51.496;6.788;2023-07-02T03:57:31;17.20;1.00
11577;DHT22;5844;51.496;6.788;2023-07-02T03:59:57;17.20;1.00
11577;DHT22;5844;51.496;6.788;2023-07-02T04:02:22;17.20;1.00
11577;DHT22;5844;51.496;6.788;2023-07-02T04:04:48;17.20;1.00
11577;DHT22;5844;51.496;6.788;2023-07-02T04:07:13;17.20;1.00
11577;DHT22;5844;51.496;6.788;2023-07-02T04:09:39;17.20;1.00
11577;DHT22;5844;51.496;6.788;2023-07-02T04:12:05;17.10;1.00
11577;DHT22;5844;51.496;6.788;2023-07-02T04:14:31;17.10;1.00
11577;DHT22;5844;51.496;6.788;2023-07-02T04:16:56;17.10;1.00
11577;DHT22;5844;51.496;6.788;2023-07-02T04:19:22;17.00;1.00
11577;DHT22;5844;51.496;6.788;2023-07-02T04:21:47;17.00;1.00
11577;DHT22;5844;51.496;6.788;2023-07-02T04:24:13;17.00;1.00
11577;DHT22;5844;51.496;6.788;2023-07-02T04:26:39;17.10;1.00
11577;DHT22;5844;51.496;6.788;2023-07-02T04:29:10;17.10;1.00
11577;DHT22;5844;51.496;6.788;2023-07-02T04:31:36;17.10;1.00
11577;DHT22;5844;51.496;6.788;2023-07-02T04:34:03;17.10;1.00
11577;DHT22;5844;51.496;6.788;2023-07-02T04:36:28;17.10;1.00
11577;DHT22;5844;51.496;6.788;2023-07-02T04:38:54;17.10;1.00
11577;DHT22;5844;51.496;6.788;2023-07-02T04:41:19;17.00;1.00
11577;DHT22;5844;51.496;6.788;2023-07-02T04:43:45;17.10;1.00
11577;DHT22;5844;51.496;6.788;2023-07-02T04:46:11;17.00;1.00
11577;DHT22;5844;51.496;6.788;2023-07-02T04:48:38;17.10;1.00
11577;DHT22;5844;51.496;6.788;2023-07-02T04:51:04;17.10;1.00
11577;DHT22;5844;51.496;6.788;2023-07-02T04:53:29;17.10;1.00
11577;DHT22;5844;51.496;6.788;2023-07-02T04:55:55;17.10;1.00
11577;DHT22;5844;51.496;6.788;2023-07-02T04:58:22;17.20;1.00
11577;DHT22;5844;51.496;6.788;2023-07-02T05:00:48;17.20;1.00
11577;DHT22;5844;51.496;6.788;2023-07-02T05:03:14;17.20;1.00
11577;DHT22;5844;51.496;6.788;2023-07-02T05:05:39;17.20;1.00
11577;DHT22;5844;51.496;6.788;2023-07-02T05:08:05;17.30;1.00
11577;DHT22;5844;51.496;6.788;2023-07-02T05:10:31;17.20;1.00
11577;DHT22;5844;51.496;6.788;2023-07-02T05:12:56;17.20;1.00
11577;DHT22;5844;51.496;6.788;2023-07-02T05:15:23;17.20;1.00
11577;DHT22;5844;51.496;6.788;2023-07-02T05:17:49;17.30;1.00
11577;DHT22;5844;51.496;6.788;2023-07-02T05:20:15;17.30;1.00
11577;DHT22;5844;51.496;6.788;2023-07-02T05:22:41;17.40;1.00
11577;DHT22;5844;51.496;6.788;2023-07-02T05:25:06;17.40;1.00
11577;DHT22;5844;51.496;6.788;2023-07-02T05:27:32;17.40;1.00
11577;DHT22;5844;51.496;6.788;2023-07-02T05:29:58;17.50;1.00
11577;DHT22;5844;51.496;6.788;2023-07-02T05:32:23;17.40;1.00
11577;DHT22;5844;51.496;6.788;2023-07-02T05:34:49;17.30;1.00
11577;DHT22;5844;51.496;6.788;2023-07-02T05:37:15;17.30;1.00
11577;DHT22;5844;51.496;6.788;2023-07-02T05:39:40;17.30;1.00
11577;DHT22;5844;51.496;6.788;2023-07-02T05:42:06;17.20;1.00
11577;DHT22;5844;51.496;6.788;2023-07-02T05:44:32;17.10;1.00
11577;DHT22;5844;51.496;6.788;2023-07-02T05:46:57;17.10;1.00
11577;DHT22;5844;51.496;6.788;2023-07-02T05:49:23;17.10;1.00
11577;DHT22;5844;51.496;6.788;2023-07-02T05:51:48;17.10;1.00
11577;DHT22;5844;51.496;6.788;2023-07-02T05:54:14;17.20;1.00
11577;DHT22;5844;51.496;6.788;2023-07-02T05:56:40;17.30;1.00
11577;DHT22;5844;51.496;6.788;2023-07-02T05:59:05;17.40;1.00
11577;DHT22;5844;51.496;6.788;2023-07-02T06:01:31;17.50;1.00
11577;DHT22;5844;51.496;6.788;2023-07-02T06:03:56;17.60;1.00
11577;DHT22;5844;51.496;6.788;2023-07-02T06:06:22;17.70;1.00
11577;DHT22;5844;51.496;6.788;2023-07-02T06:08:51;17.80;1.00
11577;DHT22;5844;51.496;6.788;2023-07-02T06:11:17;17.90;1.00
11577;DHT22;5844;51.496;6.788;2023-07-02T06:13:43;18.00;1.00
11577;DHT22;5844;51.496;6.788;2023-07-02T06:16:08;18.00;1.00
11577;DHT22;5844;51.496;6.788;2023-07-02T06:18:34;17.80;1.00
11577;DHT22;5844;51.496;6.788;2023-07-02T06:21:00;17.80;1.00
11577;DHT22;5844;51.496;6.788;2023-07-02T06:23:25;17.90;1.00
11577;DHT22;5844;51.496;6.788;2023-07-02T06:25:51;18.00;1.00
11577;DHT22;5844;51.496;6.788;2023-07-02T06:28:27;18.10;1.00
11577;DHT22;5844;51.496;6.788;2023-07-02T06:30:53;18.30;1.00
11577;DHT22;5844;51.496;6.788;2023-07-02T06:33:20;18.50;1.00
11577;DHT22;5844;51.496;6.788;2023-07-02T06:35:45;18.70;1.00
11577;DHT22;5844;51.496;6.788;2023-07-02T06:38:11;18.80;1.00
11577;DHT22;5844;51.496;6.788;2023-07-02T06:40:36;18.90;1.00
11577;DHT22;5844;51.496;6.788;2023-07-02T06:43:02;18.90;1.00
11577;DHT22;5844;51.496;6.788;2023-07-02T06:45:28;18.70;1.00
11577;DHT22;5844;51.496;6.788;2023-07-02T06:47:53;18.80;1.00
11577;DHT22;5844;51.496;6.788;2023-07-02T06:50:19;18.80;1.00
11577;DHT22;5844;51.496;6.788;2023-07-02T06:52:46;18.90;1.00
11577;DHT22;5844;51.496;6.788;2023-07-02T06:55:11;18.90;1.00
11577;DHT22;5844;51.496;6.788;2023-07-02T06:57:44;18.90;1.00
11577;DHT22;5844;51.496;6.788;2023-07-02T07:00:11;19.10;1.00
11577;DHT22;5844;51.496;6.788;2023-07-02T07:02:37;19.20;1.00
11577;DHT22;5844;51.496;6.788;2023-07-02T07:05:02;19.30;1.00
11577;DHT22;5844;51.496;6.788;2023-07-02T07:07:28;19.40;1.00
11577;DHT22;5844;51.496;6.788;2023-07-02T07:09:54;19.50;1.00
11577;DHT22;5844;51.496;6.788;2023-07-02T07:12:19;19.60;1.00
11577;DHT22;5844;51.496;6.788;2023-07-02T07:14:45;19.60;1.00
11577;DHT22;5844;51.496;6.788;2023-07-02T07:17:11;19.50;1.00
11577;DHT22;5844;51.496;6.788;2023-07-02T07:19:37;19.50;1.00
11577;DHT22;5844;51.496;6.788;2023-07-02T07:22:03;19.70;1.00
11577;DHT22;5844;51.496;6.788;2023-07-02T07:24:28;19.70;1.00
11577;DHT22;5844;51.496;6.788;2023-07-02T07:26:54;19.90;1.00
11577;DHT22;5844;51.496;6.788;2023-07-02T07:29:20;19.90;1.00
11577;DHT22;5844;51.496;6.788;2023-07-02T07:31:45;19.90;1.00
11577;DHT22;5844;51.496;6.788;2023-07-02T07:34:11;19.70;1.00
11577;DHT22;5844;51.496;6.788;2023-07-02T07:36:37;19.70;1.00
11577;DHT22;5844;51.496;6.788;2023-07-02T07:39:03;19.80;1.00
11577;DHT22;5844;51.496;6.788;2023-07-02T07:41:28;19.80;1.00
11577;DHT22;5844;51.496;6.788;2023-07-02T07:43:54;19.90;1.00
11577;DHT22;5844;51.496;6.788;2023-07-02T07:46:20;19.70;1.00
11577;DHT22;5844;51.496;6.788;2023-07-02T07:48:45;19.70;1.00
11577;DHT22;5844;51.496;6.788;2023-07-02T07:51:11;20.00;1.00
11577;DHT22;5844;51.496;6.788;2023-07-02T07:53:39;20.00;1.00
11577;DHT22;5844;51.496;6.788;2023-07-02T07:56:05;19.90;1.00
11577;DHT22;5844;51.496;6.788;2023-07-02T07:58:31;20.00;1.00
11577;DHT22;5844;51.496;6.788;2023-07-02T08:00:59;20.20;1.00
11577;DHT22;5844;51.496;6.788;2023-07-02T08:03:25;20.40;1.00
11577;DHT22;5844;51.496;6.788;2023-07-02T08:05:51;20.40;1.00
11577;DHT22;5844;51.496;6.788;2023-07-02T08:08:16;20.50;1.00
11577;DHT22;5844;51.496;6.788;2023-07-02T08:10:42;20.40;1.00
11577;DHT22;5844;51.496;6.788;2023-07-02T08:13:08;20.40;1.00
11577;DHT22;5844;51.496;6.788;2023-07-02T08:15:34;20.50;1.00
11577;DHT22;5844;51.496;6.788;2023-07-02T08:17:59;20.60;1.00
11577;DHT22;5844;51.496;6.788;2023-07-02T08:20:25;20.80;1.00
11577;DHT22;5844;51.496;6.788;2023-07-02T08:22:51;20.80;1.00
11577;DHT22;5844;51.496;6.788;2023-07-02T08:25:19;20.80;1.00
11577;DHT22;5844;51.496;6.788;2023-07-02T08:27:47;20.80;1.00
11577;DHT22;5844;51.496;6.788;2023-07-02T08:30:12;20.60;1.00
11577;DHT22;5844;51.496;6.788;2023-07-02T08:32:38;20.70;1.00
11577;DHT22;5844;51.496;6.788;2023-07-02T08:35:03;20.50;1.00
11577;DHT22;5844;51.496;6.788;2023-07-02T08:37:29;20.30;1.00
11577;DHT22;5844;51.496;6.788;2023-07-02T08:39:55;20.30;1.00
11577;DHT22;5844;51.496;6.788;2023-07-02T08:42:20;20.40;1.00
11577;DHT22;5844;51.496;6.788;2023-07-02T08:44:47;20.40;1.00
11577;DHT22;5844;51.496;6.788;2023-07-02T08:47:13;20.30;1.00
11577;DHT22;5844;51.496;6.788;2023-07-02T08:49:39;20.50;1.00
11577;DHT22;5844;51.496;6.788;2023-07-02T08:52:06;20.40;1.00
11577;DHT22;5844;51.496;6.788;2023-07-02T08:54:32;20.20;1.00
11577;DHT22;5844;51.496;6.788;2023-07-02T08:56:57;20.00;1.00
11577;DHT22;5844;51.496;6.788;2023-07-02T08:59:23;20.00;1.00
11577;DHT22;5844;51.496;6.788;2023-07-02T09:01:51;20.40;1.00
11577;DHT22;5844;51.496;6.788;2023-07-02T09:04:25;20.60;1.00
11577;DHT22;5844;51.496;6.788;2023-07-02T09:07:07;20.80;1.00
11577;DHT22;5844;51.496;6.788;2023-07-02T09:09:46;21.00;1.00
11577;DHT22;5844;51.496;6.788;2023-07-02T09:12:29;20.90;1.00
11577;DHT22;5844;51.496;6.788;2023-07-02T09:15:02;21.10;1.00
11577;DHT22;5844;51.496;6.788;2023-07-02T09:17:34;21.50;1.00
11577;DHT22;5844;51.496;6.788;2023-07-02T09:20:01;21.80;1.00
11577;DHT22;5844;51.496;6.788;2023-07-02T09:22:28;21.50;1.00
11577;DHT22;5844;51.496;6.788;2023-07-02T09:24:58;21.60;1.00
11577;DHT22;5844;51.496;6.788;2023-07-02T09:30:06;22.10;1.00
11577;DHT22;5844;51.496;6.788;2023-07-02T09:32:32;22.00;1.00
11577;DHT22;5844;51.496;6.788;2023-07-02T09:34:58;21.90;1.00
11577;DHT22;5844;51.496;6.788;2023-07-02T09:37:24;21.80;1.00
11577;DHT22;5844;51.496;6.788;2023-07-02T09:39:53;21.60;1.00
11577;DHT22;5844;51.496;6.788;2023-07-02T09:42:21;21.40;1.00
11577;DHT22;5844;51.496;6.788;2023-07-02T09:44:47;21.10;1.00
11577;DHT22;5844;51.496;6.788;2023-07-02T09:47:16;21.10;1.00
11577;DHT22;5844;51.496;6.788;2023-07-02T09:50:08;21.20;1.00
11577;DHT22;5844;51.496;6.788;2023-07-02T09:52:34;21.40;1.00
11577;DHT22;5844;51.496;6.788;2023-07-02T09:55:00;21.30;1.00
11577;DHT22;5844;51.496;6.788;2023-07-02T09:57:26;21.10;1.00
11577;DHT22;5844;51.496;6.788;2023-07-02T09:59:53;21.10;1.00
11577;DHT22;5844;51.496;6.788;2023-07-02T10:02:19;21.20;1.00
11577;DHT22;5844;51.496;6.788;2023-07-02T10:04:47;21.20;1.00
11577;DHT22;5844;51.496;6.788;2023-07-02T10:07:28;21.20;1.00
11577;DHT22;5844;51.496;6.788;2023-07-02T10:09:54;21.60;1.00
11577;DHT22;5844;51.496;6.788;2023-07-02T10:12:21;22.30;1.00
11577;DHT22;5844;51.496;6.788;2023-07-02T10:14:50;22.70;1.00
11577;DHT22;5844;51.496;6.788;2023-07-02T10:17:30;23.30;1.00
11577;DHT22;5844;51.496;6.788;2023-07-02T10:20:00;24.10;1.00
11577;DHT22;5844;51.496;6.788;2023-07-02T10:22:26;24.10;1.00
11577;DHT22;5844;51.496;6.788;2023-07-02T10:24:57;24.20;1.00
11577;DHT22;5844;51.496;6.788;2023-07-02T10:27:38;23.60;1.00
11577;DHT22;5844;51.496;6.788;2023-07-02T10:30:09;23.10;1.00
11577;DHT22;5844;51.496;6.788;2023-07-02T10:32:35;22.80;1.00
11577;DHT22;5844;51.496;6.788;2023-07-02T10:35:16;22.80;1.00
11577;DHT22;5844;51.496;6.788;2023-07-02T10:37:42;22.50;1.00
11577;DHT22;5844;51.496;6.788;2023-07-02T10:40:08;22.40;1.00
11577;DHT22;5844;51.496;6.788;2023-07-02T10:42:48;22.30;1.00
11577;DHT22;5844;51.496;6.788;2023-07-02T10:45:14;22.10;1.00
11577;DHT22;5844;51.496;6.788;2023-07-02T10:47:40;21.90;1.00
11577;DHT22;5844;51.496;6.788;2023-07-02T10:50:19;21.60;1.00
11577;DHT22;5844;51.496;6.788;2023-07-02T10:52:46;21.60;1.00
11577;DHT22;5844;51.496;6.788;2023-07-02T10:55:18;21.90;1.00
11577;DHT22;5844;51.496;6.788;2023-07-02T10:57:44;22.30;1.00
11577;DHT22;5844;51.496;6.788;2023-07-02T11:00:10;22.60;1.00
11577;DHT22;5844;51.496;6.788;2023-07-02T11:02:37;22.20;1.00
11577;DHT22;5844;51.496;6.788;2023-07-02T11:05:07;22.50;1.00
11577;DHT22;5844;51.496;6.788;2023-07-02T11:07:40;22.80;1.00
11577;DHT22;5844;51.496;6.788;2023-07-02T11:10:07;22.70;1.00
11577;DHT22;5844;51.496;6.788;2023-07-02T11:12:33;22.70;1.00
11577;DHT22;5844;51.496;6.788;2023-07-02T11:15:14;23.20;1.00
11577;DHT22;5844;51.496;6.788;2023-07-02T11:17:40;23.70;1.00
11577;DHT22;5844;51.496;6.788;2023-07-02T11:20:11;24.60;1.00
11577;DHT22;5844;51.496;6.788;2023-07-02T11:22:37;26.10;1.00
11577;DHT22;5844;51.496;6.788;2023-07-02T11:25:17;27.20;1.00
11577;DHT22;5844;51.496;6.788;2023-07-02T11:27:43;27.50;1.00
11577;DHT22;5844;51.496;6.788;2023-07-02T11:30:10;26.90;1.00
11577;DHT22;5844;51.496;6.788;2023-07-02T11:32:56;25.90;1.00
11577;DHT22;5844;51.496;6.788;2023-07-02T11:35:22;24.20;1.00
11577;DHT22;5844;51.496;6.788;2023-07-02T11:37:58;23.50;1.00
11577;DHT22;5844;51.496;6.788;2023-07-02T11:40:24;23.40;1.00
11577;DHT22;5844;51.496;6.788;2023-07-02T11:42:50;23.60;1.00
11577;DHT22;5844;51.496;6.788;2023-07-02T11:45:15;23.80;1.00
11577;DHT22;5844;51.496;6.788;2023-07-02T11:47:41;25.10;1.00
11577;DHT22;5844;51.496;6.788;2023-07-02T11:50:07;25.40;1.00
11577;DHT22;5844;51.496;6.788;2023-07-02T11:52:33;25.00;1.00
11577;DHT22;5844;51.496;6.788;2023-07-02T11:54:58;24.50;1.00
11577;DHT22;5844;51.496;6.788;2023-07-02T11:57:24;23.80;1.00
11577;DHT22;5844;51.496;6.788;2023-07-02T11:59:50;23.20;1.00
11577;DHT22;5844;51.496;6.788;2023-07-02T12:02:16;24.20;1.00
11577;DHT22;5844;51.496;6.788;2023-07-02T12:04:42;25.60;1.00
11577;DHT22;5844;51.496;6.788;2023-07-02T12:07:07;26.90;1.00
11577;DHT22;5844;51.496;6.788;2023-07-02T12:09:33;28.00;1.00
11577;DHT22;5844;51.496;6.788;2023-07-02T12:11:58;27.40;1.00
11577;DHT22;5844;51.496;6.788;2023-07-02T12:14:24;26.20;1.00
11577;DHT22;5844;51.496;6.788;2023-07-02T12:16:50;25.10;1.00
11577;DHT22;5844;51.496;6.788;2023-07-02T12:19:15;24.00;1.00
11577;DHT22;5844;51.496;6.788;2023-07-02T12:21:41;23.60;1.00
11577;DHT22;5844;51.496;6.788;2023-07-02T12:24:06;23.60;1.00
11577;DHT22;5844;51.496;6.788;2023-07-02T12:26:39;23.90;1.00
11577;DHT22;5844;51.496;6.788;2023-07-02T12:29:05;24.20;1.00
11577;DHT22;5844;51.496;6.788;2023-07-02T12:31:31;25.30;1.00
11577;DHT22;5844;51.496;6.788;2023-07-02T12:33:57;25.10;1.00
11577;DHT22;5844;51.496;6.788;2023-07-02T12:36:23;24.30;1.00
11577;DHT22;5844;51.496;6.788;2023-07-02T12:38:49;24.50;1.00
11577;DHT22;5844;51.496;6.788;2023-07-02T12:41:15;26.00;1.00
11577;DHT22;5844;51.496;6.788;2023-07-02T12:43:40;26.90;1.00
11577;DHT22;5844;51.496;6.788;2023-07-02T12:46:06;27.00;1.00
11577;DHT22;5844;51.496;6.788;2023-07-02T12:48:32;27.40;1.00
11577;DHT22;5844;51.496;6.788;2023-07-02T12:50:59;28.30;1.00
11577;DHT22;5844;51.496;6.788;2023-07-02T12:53:26;29.10;1.00
11577;DHT22;5844;51.496;6.788;2023-07-02T12:55:52;29.90;1.00
11577;DHT22;5844;51.496;6.788;2023-07-02T12:58:18;29.90;1.00
11577;DHT22;5844;51.496;6.788;2023-07-02T13:00:43;27.90;1.00
11577;DHT22;5844;51.496;6.788;2023-07-02T13:03:11;26.10;1.00
11577;DHT22;5844;51.496;6.788;2023-07-02T13:05:37;26.50;1.00
11577;DHT22;5844;51.496;6.788;2023-07-02T13:08:03;27.60;1.00
11577;DHT22;5844;51.496;6.788;2023-07-02T13:10:33;27.60;1.00
11577;DHT22;5844;51.496;6.788;2023-07-02T13:12:59;27.50;1.00
11577;DHT22;5844;51.496;6.788;2023-07-02T13:15:25;26.90;1.00
11577;DHT22;5844;51.496;6.788;2023-07-02T13:17:51;27.50;1.00
11577;DHT22;5844;51.496;6.788;2023-07-02T13:20:17;28.20;1.00
11577;DHT22;5844;51.496;6.788;2023-07-02T13:22:43;29.30;1.00
11577;DHT22;5844;51.496;6.788;2023-07-02T13:25:09;29.70;1.00
11577;DHT22;5844;51.496;6.788;2023-07-02T13:27:34;27.40;1.00
11577;DHT22;5844;51.496;6.788;2023-07-02T13:30:01;25.40;1.00
11577;DHT22;5844;51.496;6.788;2023-07-02T13:32:27;24.20;1.00
11577;DHT22;5844;51.496;6.788;2023-07-02T13:34:53;24.20;1.00
11577;DHT22;5844;51.496;6.788;2023-07-02T13:37:18;25.80;1.00
11577;DHT22;5844;51.496;6.788;2023-07-02T13:39:45;27.40;1.00
11577;DHT22;5844;51.496;6.788;2023-07-02T13:42:10;28.30;1.00
11577;DHT22;5844;51.496;6.788;2023-07-02T13:44:36;29.30;1.00
11577;DHT22;5844;51.496;6.788;2023-07-02T13:47:02;29.90;1.00
11577;DHT22;5844;51.496;6.788;2023-07-02T13:49:27;29.50;1.00
11577;DHT22;5844;51.496;6.788;2023-07-02T13:51:54;29.50;1.00
11577;DHT22;5844;51.496;6.788;2023-07-02T13:54:20;28.90;1.00
11577;DHT22;5844;51.496;6.788;2023-07-02T13:56:46;27.80;1.00
11577;DHT22;5844;51.496;6.788;2023-07-02T13:59:12;26.20;1.00
11577;DHT22;5844;51.496;6.788;2023-07-02T14:01:38;25.90;1.00
11577;DHT22;5844;51.496;6.788;2023-07-02T14:04:04;26.10;1.00
11577;DHT22;5844;51.496;6.788;2023-07-02T14:06:30;25.90;1.00
11577;DHT22;5844;51.496;6.788;2023-07-02T14:08:56;25.20;1.00
11577;DHT22;5844;51.496;6.788;2023-07-02T14:11:23;24.30;1.00
11577;DHT22;5844;51.496;6.788;2023-07-02T14:13:49;24.00;1.00
11577;DHT22;5844;51.496;6.788;2023-07-02T14:16:14;23.60;1.00
11577;DHT22;5844;51.496;6.788;2023-07-02T14:18:40;23.40;1.00
11577;DHT22;5844;51.496;6.788;2023-07-02T14:21:05;23.50;1.00
11577;DHT22;5844;51.496;6.788;2023-07-02T14:23:32;23.40;1.00
11577;DHT22;5844;51.496;6.788;2023-07-02T14:25:57;23.20;1.00
11577;DHT22;5844;51.496;6.788;2023-07-02T14:28:23;24.50;1.00
11577;DHT22;5844;51.496;6.788;2023-07-02T14:30:56;26.30;1.00
11577;DHT22;5844;51.496;6.788;2023-07-02T14:33:22;27.40;1.00
11577;DHT22;5844;51.496;6.788;2023-07-02T14:35:48;28.70;1.00
11577;DHT22;5844;51.496;6.788;2023-07-02T14:38:14;29.10;1.00
11577;DHT22;5844;51.496;6.788;2023-07-02T14:40:39;29.10;1.00
11577;DHT22;5844;51.496;6.788;2023-07-02T14:43:05;29.10;1.00
11577;DHT22;5844;51.496;6.788;2023-07-02T14:45:32;27.10;1.00
11577;DHT22;5844;51.496;6.788;2023-07-02T14:47:58;26.00;1.00
11577;DHT22;5844;51.496;6.788;2023-07-02T14:50:26;26.10;1.00
11577;DHT22;5844;51.496;6.788;2023-07-02T14:52:52;27.60;1.00
11577;DHT22;5844;51.496;6.788;2023-07-02T14:55:17;28.20;1.00
11577;DHT22;5844;51.496;6.788;2023-07-02T14:57:43;27.30;1.00
11577;DHT22;5844;51.496;6.788;2023-07-02T15:00:09;25.90;1.00
11577;DHT22;5844;51.496;6.788;2023-07-02T15:02:35;25.60;1.00
11577;DHT22;5844;51.496;6.788;2023-07-02T15:05:00;26.40;1.00
11577;DHT22;5844;51.496;6.788;2023-07-02T15:07:28;26.30;1.00
11577;DHT22;5844;51.496;6.788;2023-07-02T15:09:53;25.50;1.00
11577;DHT22;5844;51.496;6.788;2023-07-02T15:12:20;25.10;1.00
11577;DHT22;5844;51.496;6.788;2023-07-02T15:14:46;25.10;1.00
11577;DHT22;5844;51.496;6.788;2023-07-02T15:17:11;26.40;1.00
11577;DHT22;5844;51.496;6.788;2023-07-02T15:19:38;28.10;1.00
11577;DHT22;5844;51.496;6.788;2023-07-02T15:22:04;28.10;1.00
11577;DHT22;5844;51.496;6.788;2023-07-02T15:24:29;26.70;1.00
11577;DHT22;5844;51.496;6.788;2023-07-02T15:26:55;25.60;1.00
11577;DHT22;5844;51.496;6.788;2023-07-02T15:29:21;24.60;1.00
11577;DHT22;5844;51.496;6.788;2023-07-02T15:31:47;25.30;1.00
11577;DHT22;5844;51.496;6.788;2023-07-02T15:34:13;25.70;1.00
11577;DHT22;5844;51.496;6.788;2023-07-02T15:36:44;25.30;1.00
11577;DHT22;5844;51.496;6.788;2023-07-02T15:39:10;25.10;1.00
11577;DHT22;5844;51.496;6.788;2023-07-02T15:41:35;26.70;1.00
11577;DHT22;5844;51.496;6.788;2023-07-02T15:44:04;28.20;1.00
11577;DHT22;5844;51.496;6.788;2023-07-02T15:46:31;29.00;1.00
11577;DHT22;5844;51.496;6.788;2023-07-02T15:48:58;29.80;1.00
11577;DHT22;5844;51.496;6.788;2023-07-02T15:51:27;30.70;1.00
11577;DHT22;5844;51.496;6.788;2023-07-02T15:53:53;31.40;1.00
11577;DHT22;5844;51.496;6.788;2023-07-02T15:56:19;31.30;1.00
11577;DHT22;5844;51.496;6.788;2023-07-02T15:58:44;31.10;1.00
11577;DHT22;5844;51.496;6.788;2023-07-02T16:01:16;30.60;1.00
11577;DHT22;5844;51.496;6.788;2023-07-02T16:03:42;29.30;1.00
11577;DHT22;5844;51.496;6.788;2023-07-02T16:06:09;29.20;1.00
11577;DHT22;5844;51.496;6.788;2023-07-02T16:08:36;28.70;1.00